Time;durP1;ratioP1;P1;durP2;ratioP2;P2;SDS_P1;SDS_P2;PMS_P1;PMS_P2;Temp;Humidity;BMP_temperature;BMP_pressure;BME280_temperature;BME280_humidity;BME280_pressure;Samples;Min_cycle;Max_cycle;Signal;HPM_P1;HPM_P2
2024/04/08 00:01:02;;;;;;;4.50;3.58;;;25.40;44.50;;;;;;5009559;28;20034;-63
2024/04/08 00:03:28;;;;;;;5.55;3.63;;;25.40;44.50;;;;;;5009476;28;20335;-63
2024/04/08 00:05:54;;;;;;;4.10;3.38;;;25.40;44.50;;;;;;5009533;28;20395;-63
2024/04/08 00:08:19;;;;;;;4.03;3.15;;;25.40;44.60;;;;;;5008525;28;20037;-63
2024/04/08 00:10:45;;;;;;;5.10;3.53;;;25.40;44.60;;;;;;5009464;28;20033;-63
2024/04/08 00:13:10;;;;;;;3.85;3.35;;;25.30;44.60;;;;;;5008180;28;20489;-63
2024/04/08 00:15:36;;;;;;;3.80;3.10;;;25.40;45.10;;;;;;5009437;28;20041;-63
2024/04/08 00:18:02;;;;;;;4.85;3.80;;;25.30;44.50;;;;;;5009429;28;20300;-63
2024/04/08 00:20:27;;;;;;;4.65;3.30;;;25.30;44.60;;;;;;5009261;28;20632;-63
2024/04/08 00:22:53;;;;;;;3.88;3.17;;;25.30;44.60;;;;;;5009528;28;20105;-63
2024/04/08 00:25:19;;;;;;;4.10;3.13;;;25.30;44.60;;;;;;5009624;28;20112;-63
2024/04/08 00:27:45;;;;;;;3.67;3.05;;;25.30;44.60;;;;;;5009140;28;20398;-63
2024/04/08 00:30:11;;;;;;;4.40;3.40;;;25.30;44.60;;;;;;5007698;28;20531;-63
2024/04/08 00:32:36;;;;;;;4.20;3.53;;;25.30;44.60;;;;;;5009253;28;20022;-63
2024/04/08 00:35:03;;;;;;;4.00;3.30;;;25.30;44.70;;;;;;5009130;28;20022;-63
2024/04/08 00:37:29;;;;;;;4.25;3.33;;;25.20;45.10;;;;;;5009484;28;20038;-63
2024/04/08 00:39:55;;;;;;;4.30;3.35;;;25.20;44.60;;;;;;5009034;28;20048;-64
2024/04/08 00:42:20;;;;;;;4.15;3.15;;;25.30;44.70;;;;;;5009449;28;20112;-63
2024/04/08 00:44:46;;;;;;;3.67;3.30;;;25.30;44.70;;;;;;5008235;28;20058;-64
2024/04/08 00:47:13;;;;;;;3.78;3.33;;;25.20;44.60;;;;;;5009195;28;20041;-62
2024/04/08 00:49:43;;;;;;;3.60;3.10;;;25.20;44.60;;;;;;5007684;28;20116;-62
2024/04/08 00:52:12;;;;;;;3.70;3.10;;;25.20;44.70;;;;;;5009068;28;20113;-62
2024/04/08 00:54:41;;;;;;;3.90;3.35;;;25.20;44.70;;;;;;5009150;28;20104;-63
2024/04/08 00:57:09;;;;;;;4.53;3.30;;;25.20;44.70;;;;;;5009170;28;20509;-63
2024/04/08 00:59:35;;;;;;;4.22;3.10;;;25.20;44.70;;;;;;5007747;28;20121;-62
2024/04/08 01:02:01;;;;;;;4.63;3.25;;;25.20;44.70;;;;;;5008197;28;20225;-62
2024/04/08 01:04:29;;;;;;;3.75;3.03;;;25.20;44.70;;;;;;5008943;28;20029;-62
2024/04/08 01:06:55;;;;;;;3.53;3.05;;;25.20;44.80;;;;;;5008783;28;20025;-61
2024/04/08 01:09:20;;;;;;;3.88;3.03;;;25.20;44.80;;;;;;5009071;28;20033;-62
2024/04/08 01:11:46;;;;;;;3.95;2.97;;;25.10;44.70;;;;;;5008777;28;20108;-62
2024/04/08 01:14:12;;;;;;;3.20;2.90;;;25.10;44.70;;;;;;5007218;28;20041;-61
2024/04/08 01:16:38;;;;;;;3.70;3.10;;;25.10;44.70;;;;;;5007886;28;20084;-62
2024/04/08 01:19:03;;;;;;;3.80;3.20;;;25.10;44.80;;;;;;5008556;28;20030;-62
2024/04/08 01:21:29;;;;;;;4.22;2.97;;;25.10;44.80;;;;;;5011953;28;20101;-62
2024/04/08 01:23:55;;;;;;;4.35;3.20;;;25.10;44.80;;;;;;5012472;28;20577;-62
2024/04/08 01:26:21;;;;;;;4.90;3.30;;;25.10;44.80;;;;;;5012824;28;20025;-63
2024/04/08 01:28:46;;;;;;;3.83;3.30;;;25.10;44.80;;;;;;5011125;28;20042;-63
2024/04/08 01:31:14;;;;;;;3.53;3.05;;;25.10;44.80;;;;;;5012493;28;20049;-64
2024/04/08 01:33:40;;;;;;;4.22;3.05;;;25.10;44.80;;;;;;5012513;28;20041;-64
2024/04/08 01:36:06;;;;;;;3.92;2.92;;;25.10;44.80;;;;;;5012022;28;20038;-64
2024/04/08 01:38:32;;;;;;;3.45;2.80;;;25.10;44.80;;;;;;5012053;28;20032;-64
2024/04/08 01:40:58;;;;;;;3.92;3.03;;;25.10;44.80;;;;;;5012135;28;20026;-63
2024/04/08 01:43:24;;;;;;;4.50;3.38;;;25.10;44.90;;;;;;5012223;28;20026;-63
2024/04/08 01:45:53;;;;;;;3.90;3.05;;;25.10;44.90;;;;;;5010972;28;20026;-64
2024/04/08 01:48:19;;;;;;;3.63;3.03;;;25.10;44.90;;;;;;5012255;28;20030;-61
2024/04/08 01:50:45;;;;;;;3.45;2.80;;;25.00;45.30;;;;;;5011607;28;20030;-63
2024/04/08 01:53:11;;;;;;;3.40;2.95;;;25.00;44.80;;;;;;5012282;28;20034;-61
2024/04/08 01:55:37;;;;;;;3.80;3.05;;;25.00;44.80;;;;;;5011892;28;20034;-61
2024/04/08 01:58:03;;;;;;;4.68;3.20;;;25.00;44.90;;;;;;5011812;28;20100;-63
2024/04/08 02:00:28;;;;;;;4.00;3.00;;;25.00;44.90;;;;;;5010893;28;20038;-64
2024/04/08 02:02:54;;;;;;;3.58;3.20;;;25.00;44.90;;;;;;5012042;28;20469;-63
2024/04/08 02:05:20;;;;;;;4.00;3.00;;;25.00;44.90;;;;;;5011456;28;20030;-63
2024/04/08 02:07:45;;;;;;;3.40;2.80;;;25.00;45.00;;;;;;5011843;28;20045;-64
2024/04/08 02:10:11;;;;;;;3.85;3.10;;;25.00;45.00;;;;;;4986246;28;20062;-63
2024/04/08 02:12:37;;;;;;;3.47;2.78;;;24.90;44.90;;;;;;5011888;28;20030;-64
2024/04/08 02:15:03;;;;;;;4.32;3.10;;;25.00;45.00;;;;;;5010248;28;20524;-63
2024/04/08 02:17:29;;;;;;;4.10;3.10;;;24.90;45.00;;;;;;5011519;28;20030;-64
2024/04/08 02:19:55;;;;;;;3.65;2.95;;;24.90;45.00;;;;;;5011100;28;20044;-63
2024/04/08 02:22:21;;;;;;;4.00;3.33;;;24.90;45.00;;;;;;5011536;28;20145;-64
2024/04/08 02:24:47;;;;;;;3.75;3.22;;;24.90;45.00;;;;;;5011360;28;20061;-64
2024/04/08 02:27:13;;;;;;;3.53;2.92;;;24.90;45.00;;;;;;5011443;28;20061;-64
2024/04/08 02:29:38;;;;;;;3.67;3.10;;;24.90;45.00;;;;;;5009940;28;20041;-63
2024/04/08 02:32:04;;;;;;;3.60;3.00;;;24.90;45.30;;;;;;5010510;28;20030;-64
2024/04/08 02:34:33;;;;;;;3.72;3.08;;;24.90;45.10;;;;;;5010993;28;20399;-64
2024/04/08 02:36:58;;;;;;;4.07;3.10;;;24.90;45.10;;;;;;5011027;28;20041;-64
2024/04/08 02:39:24;;;;;;;3.53;3.00;;;24.90;45.10;;;;;;5011134;28;20038;-63
2024/04/08 02:41:50;;;;;;;3.80;2.92;;;24.80;45.00;;;;;;5010847;28;20100;-63
2024/04/08 02:44:15;;;;;;;3.47;3.00;;;24.90;45.10;;;;;;5009956;28;20026;-63
2024/04/08 02:46:41;;;;;;;3.65;3.00;;;24.90;45.10;;;;;;5010968;28;20422;-63
2024/04/08 02:49:06;;;;;;;3.95;3.20;;;24.80;45.10;;;;;;5010819;28;20109;-63
2024/04/08 02:51:32;;;;;;;4.15;3.10;;;24.80;45.10;;;;;;5010611;28;20617;-63
2024/04/08 02:53:58;;;;;;;3.35;2.90;;;24.80;45.10;;;;;;5010928;28;20037;-63
2024/04/08 02:56:23;;;;;;;3.55;2.97;;;24.80;45.10;;;;;;5010741;28;20038;-63
2024/04/08 02:58:49;;;;;;;3.42;2.70;;;24.80;45.10;;;;;;5010533;28;20619;-63
2024/04/08 03:01:15;;;;;;;4.07;3.10;;;24.80;45.70;;;;;;5009956;28;20084;-63
2024/04/08 03:03:41;;;;;;;3.65;3.10;;;24.80;45.20;;;;;;5010743;28;20493;-63
2024/04/08 03:06:14;;;;;;;4.18;3.30;;;24.80;45.20;;;;;;5010423;28;20018;-63
2024/04/08 03:08:41;;;;;;;3.83;3.10;;;24.80;45.20;;;;;;5010589;28;20045;-62
2024/04/08 03:11:07;;;;;;;3.97;3.33;;;24.80;45.20;;;;;;5010537;28;20116;-62
2024/04/08 03:13:35;;;;;;;3.53;3.20;;;24.80;45.20;;;;;;5010266;28;20041;-63
2024/04/08 03:16:01;;;;;;;3.83;3.05;;;24.80;45.20;;;;;;5009276;28;20482;-62
2024/04/08 03:18:26;;;;;;;4.07;2.83;;;24.80;45.20;;;;;;5010271;28;20030;-62
2024/04/08 03:20:55;;;;;;;4.40;3.03;;;24.80;45.20;;;;;;5009493;28;20466;-61
2024/04/08 03:23:22;;;;;;;4.13;3.25;;;24.80;45.20;;;;;;5010554;28;20121;-61
2024/04/08 03:25:55;;;;;;;4.07;3.30;;;24.80;45.20;;;;;;5010180;28;20026;-63
2024/04/08 03:28:21;;;;;;;3.42;3.08;;;24.70;45.20;;;;;;5009983;28;20446;-62
2024/04/08 03:30:46;;;;;;;3.72;2.67;;;24.70;45.20;;;;;;5008864;28;20057;-62
2024/04/08 03:33:12;;;;;;;3.55;2.80;;;24.70;45.20;;;;;;5010032;28;20445;-62
2024/04/08 03:35:38;;;;;;;4.40;2.90;;;24.80;45.30;;;;;;5009761;28;20065;-62
2024/04/08 03:38:03;;;;;;;4.30;2.90;;;24.70;45.20;;;;;;5009870;28;20029;-63
2024/04/08 03:40:30;;;;;;;4.15;2.67;;;24.70;45.20;;;;;;5009801;28;20022;-62
2024/04/08 03:42:55;;;;;;;3.35;2.83;;;24.70;45.30;;;;;;5009592;28;20033;-63
2024/04/08 03:45:21;;;;;;;4.57;2.85;;;24.70;45.30;;;;;;5008932;28;20025;-62
2024/04/08 03:47:47;;;;;;;3.25;2.80;;;24.70;45.30;;;;;;5009827;28;20462;-63
2024/04/08 03:50:12;;;;;;;3.17;2.60;;;24.70;45.30;;;;;;5009479;28;20105;-63
2024/04/08 03:52:38;;;;;;;3.33;2.75;;;24.70;45.30;;;;;;5009871;28;20084;-63
2024/04/08 03:55:04;;;;;;;3.70;2.85;;;24.70;45.30;;;;;;5009842;28;20032;-63
2024/04/08 03:57:29;;;;;;;4.05;2.90;;;24.70;45.30;;;;;;5009992;28;20113;-63
2024/04/08 03:59:55;;;;;;;3.40;2.90;;;24.70;45.40;;;;;;5008427;28;20136;-63
2024/04/08 04:02:21;;;;;;;3.45;2.90;;;24.70;45.40;;;;;;5009945;28;20030;-63
2024/04/08 04:04:46;;;;;;;3.70;2.90;;;24.60;45.30;;;;;;5009511;28;20034;-63
2024/04/08 04:07:12;;;;;;;3.50;2.70;;;24.70;45.50;;;;;;5009230;28;20831;-63
2024/04/08 04:09:38;;;;;;;3.65;2.72;;;24.70;45.40;;;;;;5009735;28;20022;-63
2024/04/08 04:12:04;;;;;;;3.22;2.80;;;24.60;45.40;;;;;;5009800;28;20759;-64
2024/04/08 04:14:29;;;;;;;3.45;2.80;;;24.60;45.40;;;;;;5009469;28;20040;-64
2024/04/08 04:16:55;;;;;;;4.25;2.90;;;24.60;45.40;;;;;;5008355;28;20537;-64
2024/04/08 04:19:20;;;;;;;3.33;2.72;;;24.60;45.40;;;;;;5009500;28;20436;-62
2024/04/08 04:21:46;;;;;;;3.55;2.63;;;24.60;45.40;;;;;;5009072;28;20026;-62
2024/04/08 04:24:12;;;;;;;3.55;2.78;;;24.60;45.40;;;;;;5009204;28;20113;-63
2024/04/08 04:26:37;;;;;;;3.30;2.60;;;24.60;45.40;;;;;;5009471;28;20105;-61
2024/04/08 04:29:03;;;;;;;3.85;2.90;;;24.60;45.40;;;;;;5009413;28;20129;-62
2024/04/08 04:31:41;;;;;;;3.20;2.55;;;24.60;45.40;;;;;;5007843;28;20340;-63
2024/04/08 04:34:07;;;;;;;3.30;2.97;;;24.60;45.50;;;;;;5009059;28;20026;-63
2024/04/08 04:36:33;;;;;;;3.60;2.63;;;24.60;45.40;;;;;;5009141;28;20267;-62
2024/04/08 04:38:58;;;;;;;3.70;2.65;;;24.60;45.50;;;;;;5009069;28;20494;-62
2024/04/08 04:41:24;;;;;;;3.20;2.45;;;24.60;45.40;;;;;;5009105;28;20124;-62
2024/04/08 04:43:49;;;;;;;3.10;2.58;;;24.50;45.40;;;;;;5009095;28;20041;-62
2024/04/08 04:46:15;;;;;;;3.10;2.60;;;24.50;45.40;;;;;;5007624;28;20034;-62
2024/04/08 04:48:41;;;;;;;3.88;2.70;;;24.50;45.40;;;;;;5008989;28;20076;-63
2024/04/08 04:51:07;;;;;;;4.28;2.45;;;24.50;45.40;;;;;;5008983;28;20100;-62
2024/04/08 04:53:32;;;;;;;3.88;2.50;;;24.50;45.40;;;;;;5008743;28;20416;-63
2024/04/08 04:55:58;;;;;;;4.20;2.50;;;24.50;45.40;;;;;;5011164;28;20038;-62
2024/04/08 04:58:24;;;;;;;3.05;2.22;;;24.50;45.40;;;;;;5012836;28;20038;-63
2024/04/08 05:00:49;;;;;;;3.38;2.70;;;24.50;45.40;;;;;;5011606;28;20057;-64
2024/04/08 05:03:16;;;;;;;3.30;2.30;;;24.50;45.40;;;;;;5012788;28;20514;-63
2024/04/08 05:05:41;;;;;;;3.88;2.40;;;24.50;45.40;;;;;;5012116;28;20482;-64
2024/04/08 05:08:07;;;;;;;3.75;2.72;;;24.50;45.40;;;;;;5012652;28;20029;-64
2024/04/08 05:10:33;;;;;;;3.30;2.72;;;24.50;45.40;;;;;;5012699;28;20029;-64
2024/04/08 05:12:58;;;;;;;4.55;2.75;;;24.50;45.90;;;;;;5012688;28;20465;-64
2024/04/08 05:15:24;;;;;;;3.30;2.53;;;24.50;45.40;;;;;;5011208;28;20034;-63
2024/04/08 05:17:50;;;;;;;4.57;2.83;;;24.50;45.40;;;;;;5012869;28;20034;-64
2024/04/08 05:20:16;;;;;;;4.05;2.70;;;24.50;45.40;;;;;;5012763;28;20064;-64
2024/04/08 05:22:46;;;;;;;3.85;2.88;;;24.50;45.40;;;;;;5012209;28;20470;-64
2024/04/08 05:25:12;;;;;;;3.83;2.40;;;24.50;45.50;;;;;;5012682;28;20076;-64
2024/04/08 05:27:38;;;;;;;4.05;2.45;;;24.50;45.40;;;;;;5012632;28;20057;-63
2024/04/08 05:30:05;;;;;;;4.13;2.70;;;24.50;45.40;;;;;;5012159;28;20142;-63
2024/04/08 05:32:31;;;;;;;4.18;2.63;;;24.50;45.40;;;;;;5011173;28;20025;-63
2024/04/08 05:34:57;;;;;;;3.40;2.60;;;24.50;45.40;;;;;;5012332;28;20045;-63
2024/04/08 05:37:23;;;;;;;3.75;2.50;;;24.40;45.40;;;;;;5011748;28;20034;-62
2024/04/08 05:39:48;;;;;;;3.45;2.50;;;24.40;45.40;;;;;;5011973;28;20030;-62
2024/04/08 05:42:14;;;;;;;3.42;2.58;;;24.40;45.40;;;;;;5012276;28;20536;-62
2024/04/08 05:44:39;;;;;;;4.10;2.80;;;24.40;45.30;;;;;;5011859;28;20033;-62
2024/04/08 05:47:05;;;;;;;4.13;2.22;;;24.40;45.30;;;;;;5011182;28;20026;-62
2024/04/08 05:49:31;;;;;;;3.78;2.45;;;24.40;45.30;;;;;;5012034;28;20095;-63
2024/04/08 05:51:56;;;;;;;3.28;2.47;;;24.40;45.40;;;;;;5011572;28;20113;-62
2024/04/08 05:54:23;;;;;;;4.20;2.50;;;24.40;45.50;;;;;;5011737;28;20762;-63
2024/04/08 05:56:49;;;;;;;3.75;2.50;;;24.40;45.60;;;;;;5011838;28;20141;-62
2024/04/08 05:59:15;;;;;;;3.47;2.40;;;24.50;45.60;;;;;;5011469;28;20140;-62
2024/04/08 06:01:40;;;;;;;3.78;2.40;;;24.50;45.60;;;;;;5010869;28;20022;-62
2024/04/08 06:04:08;;;;;;;2.97;2.20;;;24.50;45.60;;;;;;5010601;28;20556;-62
2024/04/08 06:06:33;;;;;;;3.10;2.20;;;24.50;45.50;;;;;;5011108;28;20053;-63
2024/04/08 06:09:05;;;;;;;2.78;2.05;;;24.50;45.50;;;;;;5011577;28;20034;-62
2024/04/08 06:11:31;;;;;;;2.58;2.00;;;24.50;45.50;;;;;;5011275;28;20375;-62
2024/04/08 06:13:56;;;;;;;3.13;2.10;;;24.50;45.40;;;;;;5010402;28;20104;-63
2024/04/08 06:16:22;;;;;;;2.80;2.20;;;24.60;45.50;;;;;;5010406;28;20034;-63
2024/04/08 06:18:48;;;;;;;3.85;2.28;;;24.60;45.50;;;;;;5011203;28;20123;-62
2024/04/08 06:21:13;;;;;;;3.15;2.08;;;24.60;45.40;;;;;;5011241;28;20022;-63
2024/04/08 06:23:39;;;;;;;2.58;2.10;;;24.60;45.40;;;;;;5011110;28;20113;-63
2024/04/08 06:26:05;;;;;;;3.55;2.20;;;24.60;45.40;;;;;;5011191;28;20030;-63
2024/04/08 06:28:30;;;;;;;2.97;2.10;;;24.70;45.40;;;;;;5011692;28;20026;-62
2024/04/08 06:30:56;;;;;;;2.90;2.03;;;24.70;45.40;;;;;;5010339;28;20112;-62
2024/04/08 06:33:22;;;;;;;2.70;2.00;;;24.70;45.50;;;;;;4992522;28;20030;-62
2024/04/08 06:35:48;;;;;;;3.03;1.70;;;24.70;45.60;;;;;;5011316;28;20033;-63
2024/04/08 06:38:14;;;;;;;3.30;2.00;;;24.70;45.50;;;;;;5010795;28;20026;-62
2024/04/08 06:40:44;;;;;;;2.60;2.00;;;24.70;45.50;;;;;;5011317;28;20517;-61
2024/04/08 06:43:10;;;;;;;2.42;1.85;;;24.70;45.60;;;;;;5011013;28;20394;-61
2024/04/08 06:45:36;;;;;;;2.00;1.60;;;24.80;45.60;;;;;;5010919;28;20026;-61
2024/04/08 06:48:01;;;;;;;3.03;2.20;;;24.80;45.70;;;;;;5010877;28;20034;-60
2024/04/08 06:50:28;;;;;;;3.17;2.38;;;24.80;45.80;;;;;;5011140;28;20036;-63
2024/04/08 06:52:53;;;;;;;2.85;2.00;;;24.80;45.60;;;;;;5013215;28;20030;-65
2024/04/08 06:55:19;;;;;;;3.00;2.20;;;24.80;45.60;;;;;;5011052;28;20081;-65
2024/04/08 06:57:46;;;;;;;3.97;2.20;;;24.80;45.50;;;;;;5011311;28;20033;-61
2024/04/08 07:00:12;;;;;;;3.20;2.25;;;24.80;45.60;;;;;;5011174;28;20117;-64
2024/04/08 07:02:38;;;;;;;3.22;2.22;;;24.80;45.60;;;;;;5009769;28;20104;-64
2024/04/08 07:05:07;;;;;;;2.63;2.03;;;24.80;45.60;;;;;;5009326;28;20025;-63
2024/04/08 07:07:33;;;;;;;3.72;2.08;;;24.90;45.60;;;;;;5010092;28;20044;-64
2024/04/08 07:09:59;;;;;;;2.75;1.88;;;24.90;45.80;;;;;;5010437;28;20502;-63
2024/04/08 07:12:25;;;;;;;3.83;1.90;;;24.90;45.60;;;;;;4987950;28;20542;-63
2024/04/08 07:14:52;;;;;;;3.83;2.10;;;24.90;45.60;;;;;;5010064;28;20113;-62
2024/04/08 07:17:18;;;;;;;3.13;2.10;;;24.90;45.60;;;;;;5009744;28;20588;-62
2024/04/08 07:19:45;;;;;;;3.25;2.08;;;25.00;45.70;;;;;;5012547;28;20112;-62
2024/04/08 07:22:10;;;;;;;2.63;2.10;;;24.90;45.60;;;;;;5010469;28;20037;-61
2024/04/08 07:24:36;;;;;;;2.60;1.90;;;25.00;45.70;;;;;;5010801;28;20425;-65
2024/04/08 07:27:05;;;;;;;2.72;2.10;;;25.00;45.70;;;;;;5011074;28;20022;-62
2024/04/08 07:29:31;;;;;;;3.60;2.28;;;25.00;45.70;;;;;;5011137;28;20445;-62
2024/04/08 07:31:57;;;;;;;3.00;2.33;;;25.00;45.60;;;;;;5009900;28;20505;-62
2024/04/08 07:34:22;;;;;;;3.20;2.10;;;25.10;45.70;;;;;;5010629;28;20029;-61
2024/04/08 07:36:51;;;;;;;3.22;2.10;;;25.00;45.60;;;;;;5010576;28;20052;-62
2024/04/08 07:39:17;;;;;;;3.03;2.15;;;25.10;46.20;;;;;;5011085;28;20706;-62
2024/04/08 07:41:43;;;;;;;3.10;1.95;;;25.10;45.70;;;;;;5010535;28;20060;-61
2024/04/08 07:44:08;;;;;;;2.60;2.00;;;25.10;45.70;;;;;;5010466;28;20048;-63
2024/04/08 07:46:34;;;;;;;2.92;2.20;;;25.10;45.70;;;;;;5009440;28;20104;-63
2024/04/08 07:48:59;;;;;;;2.85;2.00;;;25.10;45.70;;;;;;5010655;28;20053;-61
2024/04/08 07:51:25;;;;;;;2.80;2.00;;;25.10;45.70;;;;;;5010420;28;20057;-61
2024/04/08 07:53:51;;;;;;;3.53;2.15;;;25.10;45.70;;;;;;5009891;28;20076;-61
2024/04/08 07:56:16;;;;;;;2.75;1.90;;;25.10;45.70;;;;;;5010335;28;20530;-61
2024/04/08 07:58:42;;;;;;;2.60;1.90;;;25.10;45.70;;;;;;5010405;28;20029;-61
2024/04/08 08:01:08;;;;;;;2.70;2.03;;;25.20;45.70;;;;;;5010392;28;20021;-61
2024/04/08 08:03:35;;;;;;;2.47;1.90;;;25.20;45.80;;;;;;5008696;28;20379;-64
2024/04/08 08:06:00;;;;;;;2.50;1.77;;;25.20;45.70;;;;;;5009476;28;20389;-64
2024/04/08 08:08:26;;;;;;;3.05;2.10;;;25.20;45.90;;;;;;5009193;28;20040;-61
2024/04/08 08:10:52;;;;;;;3.00;1.90;;;25.20;45.80;;;;;;5012672;28;20040;-63
2024/04/08 08:13:18;;;;;;;2.83;2.03;;;25.20;45.80;;;;;;5012383;28;20022;-63
2024/04/08 08:15:57;;;;;;;3.70;2.33;;;25.20;45.80;;;;;;5010309;28;20033;-63
2024/04/08 08:18:23;;;;;;;3.72;2.30;;;25.20;45.80;;;;;;5010630;28;20034;-62
2024/04/08 08:20:49;;;;;;;3.25;2.13;;;25.30;46.30;;;;;;5010490;28;20556;-63
2024/04/08 08:23:15;;;;;;;2.83;1.98;;;25.30;45.80;;;;;;5009672;28;20034;-62
2024/04/08 08:25:41;;;;;;;4.25;2.20;;;25.30;45.80;;;;;;4985657;28;20030;-62
2024/04/08 08:28:06;;;;;;;2.80;2.00;;;25.30;45.70;;;;;;5009430;28;20041;-62
2024/04/08 08:30:39;;;;;;;3.22;1.98;;;25.30;45.80;;;;;;5008575;28;20030;-61
2024/04/08 08:33:05;;;;;;;2.53;1.80;;;25.40;45.80;;;;;;5009291;28;20120;-62
2024/04/08 08:35:31;;;;;;;2.70;2.00;;;25.30;45.80;;;;;;5011004;28;20105;-62
2024/04/08 08:37:57;;;;;;;2.95;1.90;;;25.40;45.90;;;;;;5015427;28;20470;-63
2024/04/08 08:40:23;;;;;;;2.78;2.00;;;25.40;45.80;;;;;;5016318;28;20033;-62
2024/04/08 08:42:51;;;;;;;3.80;2.03;;;25.40;45.90;;;;;;5011707;28;20509;-62
2024/04/08 08:45:17;;;;;;;3.15;1.88;;;25.40;45.90;;;;;;5012116;28;20024;-61
2024/04/08 08:47:43;;;;;;;2.70;1.98;;;25.40;45.90;;;;;;5015105;28;20022;-62
2024/04/08 08:50:10;;;;;;;3.38;1.88;;;25.40;45.90;;;;;;5016344;28;20603;-63
2024/04/08 08:52:36;;;;;;;2.70;2.05;;;25.40;45.90;;;;;;5015704;28;20030;-62
2024/04/08 08:55:04;;;;;;;2.40;1.70;;;25.40;45.90;;;;;;5013987;28;20036;-62
2024/04/08 08:57:30;;;;;;;2.28;1.67;;;25.40;46.00;;;;;;5009170;28;20049;-62
2024/04/08 08:59:57;;;;;;;2.25;1.70;;;25.40;46.00;;;;;;5013060;28;20046;-63
2024/04/08 09:02:25;;;;;;;2.35;1.60;;;25.40;46.00;;;;;;5015472;28;20030;-63
2024/04/08 09:04:51;;;;;;;3.15;1.60;;;25.50;46.10;;;;;;5010225;28;20041;-63
2024/04/08 09:07:17;;;;;;;2.17;1.50;;;25.40;46.10;;;;;;5009669;28;20105;-63
2024/04/08 09:09:56;;;;;;;2.00;1.50;;;25.40;46.10;;;;;;5008971;28;20117;-65
2024/04/08 09:12:22;;;;;;;2.42;1.50;;;25.50;46.10;;;;;;4986705;28;20504;-65
2024/04/08 09:14:51;;;;;;;3.47;1.65;;;25.50;46.10;;;;;;5008700;28;20042;-65
2024/04/08 09:17:18;;;;;;;2.35;1.60;;;25.50;46.20;;;;;;5007413;28;20022;-64
2024/04/08 09:19:44;;;;;;;2.25;1.67;;;25.50;46.80;;;;;;5008697;28;20072;-64
2024/04/08 09:22:11;;;;;;;2.22;1.70;;;25.50;46.30;;;;;;5008666;28;20021;-64
2024/04/08 09:24:36;;;;;;;2.22;1.70;;;25.50;46.20;;;;;;5008539;28;20030;-64
2024/04/08 09:27:02;;;;;;;2.20;1.70;;;25.50;46.10;;;;;;5008646;28;20034;-64
2024/04/08 09:29:28;;;;;;;2.90;2.05;;;25.50;46.10;;;;;;5008704;28;20048;-63
2024/04/08 09:31:55;;;;;;;2.53;1.88;;;25.60;46.10;;;;;;5008628;28;20034;-63
2024/04/08 09:34:20;;;;;;;2.45;1.80;;;25.50;46.60;;;;;;5007482;28;20116;-63
2024/04/08 09:36:47;;;;;;;2.65;1.80;;;25.60;46.60;;;;;;5008804;28;20116;-63
2024/04/08 09:39:14;;;;;;;2.35;1.67;;;25.60;46.10;;;;;;5008050;28;20121;-63
2024/04/08 09:41:40;;;;;;;2.78;1.90;;;25.60;46.00;;;;;;5010279;28;20069;-64
2024/04/08 09:44:12;;;;;;;2.47;1.80;;;25.60;46.60;;;;;;5012087;28;20057;-64
2024/04/08 09:46:40;;;;;;;3.03;1.85;;;25.60;46.00;;;;;;5011809;28;20022;-65
2024/04/08 09:49:09;;;;;;;2.35;1.77;;;25.60;46.00;;;;;;5011230;28;20034;-64
2024/04/08 09:51:39;;;;;;;2.00;1.63;;;25.60;46.00;;;;;;5011682;28;20037;-63
2024/04/08 09:54:05;;;;;;;2.13;1.60;;;25.60;46.00;;;;;;5011674;28;20026;-64
2024/04/08 09:56:35;;;;;;;2.25;1.80;;;25.60;46.00;;;;;;5012267;28;20029;-63
2024/04/08 09:59:04;;;;;;;2.45;1.67;;;25.60;46.00;;;;;;5011692;28;20075;-62
2024/04/08 10:01:30;;;;;;;3.00;2.00;;;25.70;46.00;;;;;;5012038;28;20172;-64
2024/04/08 10:04:01;;;;;;;2.50;1.77;;;25.70;46.00;;;;;;5010422;28;20445;-64
2024/04/08 10:06:28;;;;;;;2.72;1.90;;;25.70;46.50;;;;;;5011676;28;20038;-64
2024/04/08 10:08:55;;;;;;;2.95;1.77;;;25.70;46.50;;;;;;5011536;28;20524;-63
2024/04/08 10:11:21;;;;;;;2.90;1.73;;;25.70;46.00;;;;;;5011090;28;20040;-63
2024/04/08 10:13:47;;;;;;;3.47;1.88;;;25.70;46.00;;;;;;5011185;28;20037;-65
2024/04/08 10:16:14;;;;;;;2.45;1.50;;;25.70;46.20;;;;;;5011526;28;20030;-63
2024/04/08 10:18:52;;;;;;;2.35;1.52;;;25.70;46.10;;;;;;5010227;28;20041;-63
2024/04/08 10:21:19;;;;;;;2.35;1.70;;;25.70;46.00;;;;;;5011867;28;20971;-63
2024/04/08 10:23:45;;;;;;;2.83;1.75;;;25.70;46.00;;;;;;5011046;28;20433;-62
2024/04/08 10:26:13;;;;;;;2.42;1.70;;;25.70;46.00;;;;;;5011394;28;20120;-62
2024/04/08 10:28:42;;;;;;;2.17;1.70;;;25.70;46.10;;;;;;5011406;28;20632;-63
2024/04/08 10:31:09;;;;;;;2.45;1.73;;;25.70;46.10;;;;;;5011080;28;20030;-62
2024/04/08 10:33:35;;;;;;;2.72;1.88;;;25.70;46.00;;;;;;5010167;28;20450;-63
2024/04/08 10:36:04;;;;;;;2.80;1.90;;;25.80;46.10;;;;;;5011069;28;20110;-62
2024/04/08 10:38:30;;;;;;;;;;;25.70;46.00;;;;;;5010983;28;20033;-62
2024/04/08 10:41:04;;;;;;;2.60;1.70;;;25.80;46.10;;;;;;5010886;28;19909;-62
2024/04/08 10:43:34;;;;;;;2.10;1.50;;;25.80;46.10;;;;;;5011132;28;20428;-62
2024/04/08 10:46:05;;;;;;;2.35;1.55;;;25.80;46.80;;;;;;5010238;28;20517;-63
2024/04/08 10:48:31;;;;;;;2.40;1.60;;;25.80;46.20;;;;;;5009788;28;20334;-63
2024/04/08 10:50:58;;;;;;;2.63;1.55;;;25.80;46.20;;;;;;5010635;28;20496;-63
2024/04/08 10:53:27;;;;;;;2.45;1.60;;;25.80;46.10;;;;;;5009557;28;20053;-63
2024/04/08 10:55:53;;;;;;;2.45;1.52;;;25.80;46.20;;;;;;5010222;28;20038;-63
2024/04/08 10:58:19;;;;;;;1.88;1.50;;;25.80;46.20;;;;;;5010608;28;20508;-63
2024/04/08 11:00:45;;;;;;;2.42;1.60;;;25.80;46.10;;;;;;5010690;28;20101;-63
2024/04/08 11:03:12;;;;;;;2.40;1.60;;;25.80;46.10;;;;;;5009427;28;20044;-62
2024/04/08 11:05:39;;;;;;;2.60;1.67;;;25.80;46.10;;;;;;5010654;28;20038;-63
2024/04/08 11:08:06;;;;;;;1.90;1.50;;;25.80;46.10;;;;;;5010622;28;20022;-63
2024/04/08 11:10:31;;;;;;;2.15;1.50;;;25.80;46.10;;;;;;5010287;28;20407;-64
2024/04/08 11:12:57;;;;;;;3.22;1.60;;;25.80;46.10;;;;;;5010388;28;20157;-64
2024/04/08 11:15:23;;;;;;;2.00;1.40;;;25.80;46.10;;;;;;5010362;28;20108;-64
2024/04/08 11:18:00;;;;;;;1.92;1.42;;;25.90;46.10;;;;;;5010348;28;20512;-64
2024/04/08 11:20:27;;;;;;;1.77;1.30;;;25.90;46.20;;;;;;5009567;28;20030;-63
2024/04/08 11:22:54;;;;;;;2.88;1.70;;;25.90;46.20;;;;;;5010209;28;20096;-63
2024/04/08 11:25:20;;;;;;;1.83;1.40;;;25.90;46.20;;;;;;5009294;28;20050;-63
2024/04/08 11:27:46;;;;;;;1.73;1.30;;;25.90;46.20;;;;;;5010200;28;20036;-63
2024/04/08 11:30:16;;;;;;;2.50;1.48;;;25.90;46.20;;;;;;5009877;28;20036;-63
2024/04/08 11:32:42;;;;;;;2.22;1.50;;;25.90;46.20;;;;;;5009508;28;20033;-63
2024/04/08 11:35:08;;;;;;;2.38;1.58;;;25.90;46.20;;;;;;5008898;28;20509;-63
2024/04/08 11:37:34;;;;;;;2.13;1.40;;;25.90;46.20;;;;;;5009852;28;20034;-63
2024/04/08 11:40:05;;;;;;;2.03;1.30;;;25.90;46.20;;;;;;4992581;28;20080;-63
2024/04/08 11:42:31;;;;;;;1.50;1.23;;;25.90;46.20;;;;;;5009909;28;20450;-63
2024/04/08 11:45:06;;;;;;;1.90;1.40;;;25.90;46.20;;;;;;5009684;28;20030;-63
2024/04/08 11:47:32;;;;;;;2.95;1.40;;;25.90;46.20;;;;;;5009768;28;20050;-63
2024/04/08 11:49:58;;;;;;;2.35;1.35;;;25.90;46.20;;;;;;5008172;28;20057;-63
2024/04/08 11:52:24;;;;;;;2.97;1.42;;;25.90;46.20;;;;;;5009802;28;20034;-63
2024/04/08 11:54:49;;;;;;;1.55;1.15;;;25.90;46.70;;;;;;5009032;28;20061;-63
2024/04/08 11:57:15;;;;;;;2.05;1.30;;;25.90;46.20;;;;;;5009312;28;20137;-63
2024/04/08 11:59:42;;;;;;;2.70;1.50;;;25.90;46.20;;;;;;5009629;28;20033;-64
2024/04/08 12:02:08;;;;;;;2.05;1.50;;;25.90;46.70;;;;;;5009310;28;20030;-64
2024/04/08 12:04:33;;;;;;;1.85;1.33;;;25.90;46.20;;;;;;5008640;28;20025;-64
2024/04/08 12:07:01;;;;;;;2.03;1.30;;;26.00;46.20;;;;;;5009293;28;20393;-64
2024/04/08 12:09:26;;;;;;;2.28;1.42;;;25.90;46.20;;;;;;5008745;28;20046;-64
2024/04/08 12:11:52;;;;;;;1.67;1.20;;;26.00;46.20;;;;;;5009316;28;20418;-64
2024/04/08 12:14:18;;;;;;;2.00;1.25;;;26.00;46.20;;;;;;5009472;28;20072;-64
2024/04/08 12:16:43;;;;;;;1.85;1.30;;;26.00;46.30;;;;;;5009534;28;20045;-64
2024/04/08 12:19:09;;;;;;;1.90;1.23;;;26.00;46.20;;;;;;5008512;28;20076;-62
2024/04/08 12:21:35;;;;;;;2.40;1.30;;;26.00;46.20;;;;;;5009530;28;20053;-62
2024/04/08 12:24:02;;;;;;;1.90;1.50;;;26.00;46.20;;;;;;5009483;28;20101;-62
2024/04/08 12:26:28;;;;;;;1.98;1.27;;;26.00;46.20;;;;;;5009634;28;20439;-62
2024/04/08 12:30:12;;;;;;;2.15;1.60;;;26.00;46.20;;;;;;5516336;25;20467;-64
2024/04/08 12:32:38;;;;;;;2.00;1.50;;;26.00;46.30;;;;;;5511684;25;20321;-64
2024/04/08 12:35:04;;;;;;;1.90;1.40;;;26.00;46.40;;;;;;5543099;25;20011;-64
2024/04/08 12:37:30;;;;;;;1.98;1.30;;;26.10;46.40;;;;;;5520191;25;20003;-64
2024/04/08 12:39:56;;;;;;;1.83;1.33;;;26.10;46.40;;;;;;5512491;25;20015;-64
2024/04/08 12:42:21;;;;;;;1.83;1.33;;;26.10;46.40;;;;;;5490258;25;19990;-65
2024/04/08 12:44:47;;;;;;;1.70;1.20;;;26.10;46.60;;;;;;5518944;25;20398;-64